Burnt Water, Arizona
Current Conditions -  °F | °C
As of 3:53 AM on Monday 22 Dec 2014 (Local Time) from KRQE Reporting Station
Clear Clear  
Wind Chill: 32°   Ceiling: Unl
Heat Index: 32°   Visibility: 10mi
Dew Point: 28°   Wind: 0mph
Humidity: 85%   Direction: NA
Pressure: 30.02"   Gusts: NA
Location:  35.3778°N, 109.355°W
Report Text: KRQE 221053Z AUTO 00000KT 10SM CLR 00/M02 A3002 RMK AO2 SLP128 T00001022 TSNO
Loading
Personal Weather Stations






























Interactive Weather Map New forecast layout! Learn more

10-Day Weather Forecast

Advertisements
Track Severe Weather on mobile